KPVJ

Pauls Valley Municipal Airport

Pauls Valley, Oklahoma, USA
METAR KPVJ 230915Z AUTO 00000KT 10SM OVC085 11/09 A3020 RMK AO2 T01080089
Observed Flight Rules
Oct-23 @ 09:15 UTC (25 minutes ago) Visual Flight Rules
Visibility Clouds
10 miles
  • Overcast at 8,500' AGL
Temperatures Readings
Current 11°C / 52°F
Dewpoint 9°C / 48°F
Humidity 88%
Altimeter 30.2" Hg
Pressure 1023 hPa
Elevation 295
METAR KPVJ 230915Z AUTO 00000KT 10SM OVC085 11/09 A3020 RMK AO2 T01080089
Observed Flight Rules
Oct-23 @ 09:15 UTC
(25 minutes ago)
VFR
Clouds
  • Overcast at 8,500' AGL
Temperature Dewpoint
11°C / 52°F 9°C / 48°F
Humidity Altimeter Pressure
88% 30.2" Hg 1023 hPa